Titan — WDD7142 — position and weather

sailwx.info

Track history (hours):
 
Tides and Currents Weather Stations Pressure Air Temp Water Temp Dewpoint Dewpoint Depression Visibility Wind Speed Wind Dir Waves Ship Positions

Titan

Owner: Seabulk Towing Service,Inc, Groves, TX. More information available from US FCC via Universal Licensing System and Coast Guard Vessel Documentation Center.

Last reported at 2017-Dec-11 15:25 UTC. Time now 2017-Dec-13 07:14 UTC.
Position N 29°57' W 093°52'.

Length 32 m.

Type: Tug. MMSI: 366268050.

Date/timePositionNaut miles runAvg speedWind from/ knotsBaromVisibWave heightAir tempDewpointWater temp
2017-Dec-11 15:25N 29°57' W 093°52'0 0.0
2017-Dec-11 14:29N 29°57' W 093°52'0 0.0
2017-Dec-11 14:00N 29°57' W 093°52'0 0.0
2017-Dec-11 13:30N 29°57' W 093°52'0 0.0
2017-Dec-11 13:00N 29°57' W 093°52'0 0.0
2017-Dec-11 12:30N 29°57' W 093°52'0 0.0
2017-Dec-11 11:29N 29°57' W 093°52'0 0.0
2017-Dec-11 10:59N 29°57' W 093°52'0 0.0
2017-Dec-11 10:19N 29°57' W 093°52'0 0.0
2017-Dec-11 09:59N 29°57' W 093°52'0 0.0
2017-Dec-11 09:30N 29°57' W 093°52'0 0.0
2017-Dec-11 09:00N 29°57' W 093°52'0 0.0
2017-Dec-11 08:30N 29°57' W 093°52'0 0.0
2017-Dec-11 08:00N 29°57' W 093°52'0 0.0
2017-Dec-11 07:30N 29°57' W 093°52'0 0.0
2017-Dec-11 07:00N 29°57' W 093°52'0 0.0
2017-Dec-11 06:30N 29°57' W 093°52'0 0.0
2017-Dec-11 06:00N 29°57' W 093°52'0 0.0
2017-Dec-11 05:30N 29°57' W 093°52'0 0.0
2017-Dec-11 05:00N 29°57' W 093°52'0 0.0
2017-Dec-11 04:30N 29°57' W 093°52'0 0.0
2017-Dec-11 03:25N 29°57' W 093°52'0 0.0
2017-Dec-10 16:06N 29°57' W 093°52'0 0.0
2017-Dec-10 16:00N 29°57' W 093°52'0 0.0
2017-Dec-10 15:30N 29°57' W 093°52'0 0.0
2017-Dec-10 15:00N 29°57' W 093°52'0 0.0
2017-Dec-10 14:30N 29°57' W 093°52'0 0.0
2017-Dec-10 13:07N 29°57' W 093°52'0 0.0
2017-Dec-10 13:00N 29°57' W 093°52'0 0.0
2017-Dec-10 12:22N 29°57' W 093°52'0 0.0
2017-Dec-09 15:20N 29°57' W 093°52'0 0.0
2017-Dec-09 14:48N 29°57' W 093°52'0 0.0
2017-Dec-09 13:49N 29°57' W 093°52'14 0.3
2017-Dec-07 12:20N 30°05' W 094°05'2 7.0
2017-Dec-07 12:00N 30°04' W 094°02'  
2017-Dec-04 02:04N 29°60' W 093°57'2 5.6
2017-Dec-04 01:46N 30°01' W 093°58'1 2.5
2017-Dec-04 01:16N 30°01' W 093°60'0 0.0
2017-Dec-04 01:01N 30°01' W 093°60'0 0.0
2017-Dec-03 21:03N 30°01' W 093°60'3 2.5
2017-Dec-03 19:49N 29°60' W 093°56'0 0.0
2017-Dec-03 19:20N 29°60' W 093°56'0 0.0
2017-Dec-03 18:51N 29°60' W 093°56'0 0.0
2017-Dec-03 18:28N 29°60' W 093°56'0 0.0
2017-Dec-03 17:01N 29°60' W 093°56'0 0.0
2017-Dec-03 16:07N 29°60' W 093°56'0 0.0
2017-Dec-03 15:52N 29°60' W 093°56'0 0.0
2017-Dec-03 15:30N 29°60' W 093°56'0 0.0
2017-Dec-03 15:01N 29°60' W 093°56'0 0.0
2017-Dec-03 14:25N 29°60' W 093°56'0 0.0
2017-Dec-03 13:58N 29°60' W 093°56'0 0.0
2017-Dec-03 12:08N 29°60' W 093°56'0 0.0
2017-Dec-03 12:00N 29°60' W 093°56'0 0.0
2017-Dec-03 11:31N 29°60' W 093°56'0 0.0
2017-Dec-03 10:53N 29°60' W 093°56'0 0.0
2017-Dec-03 10:06N 29°60' W 093°56'0 0.0
2017-Dec-03 10:00N 29°60' W 093°56'0 0.0
2017-Dec-03 09:30N 29°60' W 093°56'0 0.0
2017-Dec-03 08:56N 29°60' W 093°56'5 3.4
2017-Dec-03 07:33N 29°58' W 093°51'0 7.9
2017-Dec-03 07:31N 29°57' W 093°52'6 8.1
2017-Dec-03 06:47N 29°53' W 093°55'1 2.6
2017-Dec-03 06:17N 29°52' W 093°56'0 0.1
2017-Dec-03 05:30N 29°52' W 093°56'0 0.0
2017-Dec-03 04:49N 29°52' W 093°56'0 0.0
2017-Dec-03 04:31N 29°52' W 093°56'0 0.0
2017-Dec-02 10:55N 29°52' W 093°56'  
Track history (hours):
 
Tides and Currents Weather Stations Pressure Air Temp Water Temp Dewpoint Dewpoint Depression Visibility Wind Speed Wind Dir Waves Ship Positions

Titan

Owner: Seabulk Towing Service,Inc, Groves, TX. More information available from US FCC via Universal Licensing System and Coast Guard Vessel Documentation Center.

Last reported at 2017-Dec-11 15:25 UTC. Time now 2017-Dec-13 07:14 UTC.
Position N 29°57' W 093°52'.

Length 32 m.

Type: Tug. MMSI: 366268050.

Date/timePositionNaut miles runAvg speedWind from/ knotsBaromVisibWave heightAir tempDewpointWater temp
2017-Dec-11 15:25N 29°57' W 093°52'0 0.0
2017-Dec-11 14:29N 29°57' W 093°52'0 0.0
2017-Dec-11 14:00N 29°57' W 093°52'0 0.0
2017-Dec-11 13:30N 29°57' W 093°52'0 0.0
2017-Dec-11 13:00N 29°57' W 093°52'0 0.0
2017-Dec-11 12:30N 29°57' W 093°52'0 0.0
2017-Dec-11 11:29N 29°57' W 093°52'0 0.0
2017-Dec-11 10:59N 29°57' W 093°52'0 0.0
2017-Dec-11 10:19N 29°57' W 093°52'0 0.0
2017-Dec-11 09:59N 29°57' W 093°52'0 0.0
2017-Dec-11 09:30N 29°57' W 093°52'0 0.0
2017-Dec-11 09:00N 29°57' W 093°52'0 0.0
2017-Dec-11 08:30N 29°57' W 093°52'0 0.0
2017-Dec-11 08:00N 29°57' W 093°52'0 0.0
2017-Dec-11 07:30N 29°57' W 093°52'0 0.0
2017-Dec-11 07:00N 29°57' W 093°52'0 0.0
2017-Dec-11 06:30N 29°57' W 093°52'0 0.0
2017-Dec-11 06:00N 29°57' W 093°52'0 0.0
2017-Dec-11 05:30N 29°57' W 093°52'0 0.0
2017-Dec-11 05:00N 29°57' W 093°52'0 0.0
2017-Dec-11 04:30N 29°57' W 093°52'0 0.0
2017-Dec-11 03:25N 29°57' W 093°52'0 0.0
2017-Dec-10 16:06N 29°57' W 093°52'0 0.0
2017-Dec-10 16:00N 29°57' W 093°52'0 0.0
2017-Dec-10 15:30N 29°57' W 093°52'0 0.0
2017-Dec-10 15:00N 29°57' W 093°52'0 0.0
2017-Dec-10 14:30N 29°57' W 093°52'0 0.0
2017-Dec-10 13:07N 29°57' W 093°52'0 0.0
2017-Dec-10 13:00N 29°57' W 093°52'0 0.0
2017-Dec-10 12:22N 29°57' W 093°52'0 0.0
2017-Dec-09 15:20N 29°57' W 093°52'0 0.0
2017-Dec-09 14:48N 29°57' W 093°52'0 0.0
2017-Dec-09 13:49N 29°57' W 093°52'14 0.3
2017-Dec-07 12:20N 30°05' W 094°05'2 7.0
2017-Dec-07 12:00N 30°04' W 094°02'  
2017-Dec-04 02:04N 29°60' W 093°57'2 5.6
2017-Dec-04 01:46N 30°01' W 093°58'1 2.5
2017-Dec-04 01:16N 30°01' W 093°60'0 0.0
2017-Dec-04 01:01N 30°01' W 093°60'0 0.0
2017-Dec-03 21:03N 30°01' W 093°60'3 2.5
2017-Dec-03 19:49N 29°60' W 093°56'0 0.0
2017-Dec-03 19:20N 29°60' W 093°56'0 0.0
2017-Dec-03 18:51N 29°60' W 093°56'0 0.0
2017-Dec-03 18:28N 29°60' W 093°56'0 0.0
2017-Dec-03 17:01N 29°60' W 093°56'0 0.0
2017-Dec-03 16:07N 29°60' W 093°56'0 0.0
2017-Dec-03 15:52N 29°60' W 093°56'0 0.0
2017-Dec-03 15:30N 29°60' W 093°56'0 0.0
2017-Dec-03 15:01N 29°60' W 093°56'0 0.0
2017-Dec-03 14:25N 29°60' W 093°56'0 0.0
2017-Dec-03 13:58N 29°60' W 093°56'0 0.0
2017-Dec-03 12:08N 29°60' W 093°56'0 0.0
2017-Dec-03 12:00N 29°60' W 093°56'0 0.0
2017-Dec-03 11:31N 29°60' W 093°56'0 0.0
2017-Dec-03 10:53N 29°60' W 093°56'0 0.0
2017-Dec-03 10:06N 29°60' W 093°56'0 0.0
2017-Dec-03 10:00N 29°60' W 093°56'0 0.0
2017-Dec-03 09:30N 29°60' W 093°56'0 0.0
2017-Dec-03 08:56N 29°60' W 093°56'5 3.4
2017-Dec-03 07:33N 29°58' W 093°51'0 7.9
2017-Dec-03 07:31N 29°57' W 093°52'6 8.1
2017-Dec-03 06:47N 29°53' W 093°55'1 2.6
2017-Dec-03 06:17N 29°52' W 093°56'0 0.1
2017-Dec-03 05:30N 29°52' W 093°56'0 0.0
2017-Dec-03 04:49N 29°52' W 093°56'0 0.0
2017-Dec-03 04:31N 29°52' W 093°56'0 0.0
2017-Dec-02 10:55N 29°52' W 093°56'  

Dump ship's entire track history